sensor_id;sensor_type;location;lat;lon;timestamp;P1;durP1;ratioP1;P2;durP2;ratioP2
64682;SDS011;51107;47.652;19.016;2023-10-13T00:02:04;12.55;;;4.55;;
64682;SDS011;51107;47.652;19.016;2023-10-13T00:04:34;8.18;;;4.78;;
64682;SDS011;51107;47.652;19.016;2023-10-13T00:07:05;7.35;;;4.53;;
64682;SDS011;51107;47.652;19.016;2023-10-13T00:09:37;9.05;;;4.60;;
64682;SDS011;51107;47.652;19.016;2023-10-13T00:12:06;7.55;;;4.22;;
64682;SDS011;51107;47.652;19.016;2023-10-13T00:14:38;7.18;;;4.70;;
64682;SDS011;51107;47.652;19.016;2023-10-13T00:17:13;8.48;;;4.68;;
64682;SDS011;51107;47.652;19.016;2023-10-13T00:19:49;9.85;;;4.40;;
64682;SDS011;51107;47.652;19.016;2023-10-13T00:22:20;5.53;;;3.95;;
64682;SDS011;51107;47.652;19.016;2023-10-13T00:24:51;7.37;;;4.45;;
64682;SDS011;51107;47.652;19.016;2023-10-13T00:27:26;6.65;;;4.45;;
64682;SDS011;51107;47.652;19.016;2023-10-13T00:30:10;7.32;;;3.75;;
64682;SDS011;51107;47.652;19.016;2023-10-13T00:33:01;7.07;;;4.18;;
64682;SDS011;51107;47.652;19.016;2023-10-13T00:35:30;11.05;;;4.68;;
64682;SDS011;51107;47.652;19.016;2023-10-13T00:38:04;7.75;;;3.75;;
64682;SDS011;51107;47.652;19.016;2023-10-13T00:40:45;7.95;;;4.50;;
64682;SDS011;51107;47.652;19.016;2023-10-13T00:43:21;6.75;;;3.87;;
64682;SDS011;51107;47.652;19.016;2023-10-13T00:45:57;6.45;;;3.70;;
64682;SDS011;51107;47.652;19.016;2023-10-13T00:48:41;7.78;;;3.05;;
64682;SDS011;51107;47.652;19.016;2023-10-13T00:51:12;6.10;;;3.90;;
64682;SDS011;51107;47.652;19.016;2023-10-13T00:54:01;7.45;;;3.53;;
64682;SDS011;51107;47.652;19.016;2023-10-13T00:56:36;6.37;;;3.42;;
64682;SDS011;51107;47.652;19.016;2023-10-13T00:59:09;10.10;;;3.67;;
64682;SDS011;51107;47.652;19.016;2023-10-13T01:01:38;8.60;;;3.58;;
64682;SDS011;51107;47.652;19.016;2023-10-13T01:04:11;7.53;;;3.35;;
64682;SDS011;51107;47.652;19.016;2023-10-13T01:06:43;4.28;;;2.72;;
64682;SDS011;51107;47.652;19.016;2023-10-13T01:09:13;6.10;;;3.12;;
64682;SDS011;51107;47.652;19.016;2023-10-13T01:11:45;6.47;;;3.08;;
64682;SDS011;51107;47.652;19.016;2023-10-13T01:14:16;5.82;;;3.10;;
64682;SDS011;51107;47.652;19.016;2023-10-13T01:16:46;7.10;;;3.40;;
64682;SDS011;51107;47.652;19.016;2023-10-13T01:19:16;6.95;;;3.25;;
64682;SDS011;51107;47.652;19.016;2023-10-13T01:22:07;6.95;;;3.67;;
64682;SDS011;51107;47.652;19.016;2023-10-13T01:24:35;4.78;;;3.10;;
64682;SDS011;51107;47.652;19.016;2023-10-13T01:27:03;6.40;;;3.00;;
64682;SDS011;51107;47.652;19.016;2023-10-13T01:29:53;7.45;;;3.50;;
64682;SDS011;51107;47.652;19.016;2023-10-13T01:32:35;6.90;;;3.33;;
64682;SDS011;51107;47.652;19.016;2023-10-13T01:35:09;5.97;;;3.58;;
64682;SDS011;51107;47.652;19.016;2023-10-13T01:37:37;5.65;;;3.25;;
64682;SDS011;51107;47.652;19.016;2023-10-13T01:40:06;8.45;;;3.33;;
64682;SDS011;51107;47.652;19.016;2023-10-13T01:42:35;7.12;;;2.92;;
64682;SDS011;51107;47.652;19.016;2023-10-13T01:45:05;9.55;;;3.75;;
64682;SDS011;51107;47.652;19.016;2023-10-13T01:47:33;9.07;;;2.90;;
64682;SDS011;51107;47.652;19.016;2023-10-13T01:50:03;7.65;;;3.75;;
64682;SDS011;51107;47.652;19.016;2023-10-13T01:52:48;5.05;;;2.83;;
64682;SDS011;51107;47.652;19.016;2023-10-13T01:55:17;3.33;;;2.50;;
64682;SDS011;51107;47.652;19.016;2023-10-13T01:57:47;6.05;;;3.08;;
64682;SDS011;51107;47.652;19.016;2023-10-13T02:00:16;7.32;;;3.00;;
64682;SDS011;51107;47.652;19.016;2023-10-13T02:02:47;4.32;;;2.90;;
64682;SDS011;51107;47.652;19.016;2023-10-13T02:05:18;8.75;;;3.55;;
64682;SDS011;51107;47.652;19.016;2023-10-13T02:07:47;9.88;;;3.28;;
64682;SDS011;51107;47.652;19.016;2023-10-13T02:10:15;7.72;;;3.45;;
64682;SDS011;51107;47.652;19.016;2023-10-13T02:12:44;8.40;;;3.60;;
64682;SDS011;51107;47.652;19.016;2023-10-13T02:15:12;6.97;;;3.62;;
64682;SDS011;51107;47.652;19.016;2023-10-13T02:17:54;8.45;;;3.90;;
64682;SDS011;51107;47.652;19.016;2023-10-13T02:20:23;8.50;;;3.60;;
64682;SDS011;51107;47.652;19.016;2023-10-13T02:22:59;7.05;;;3.53;;
64682;SDS011;51107;47.652;19.016;2023-10-13T02:25:27;7.25;;;4.20;;
64682;SDS011;51107;47.652;19.016;2023-10-13T02:28:14;7.37;;;3.47;;
64682;SDS011;51107;47.652;19.016;2023-10-13T02:30:43;12.10;;;3.92;;
64682;SDS011;51107;47.652;19.016;2023-10-13T02:33:18;5.87;;;3.90;;
64682;SDS011;51107;47.652;19.016;2023-10-13T02:35:49;7.93;;;3.75;;
64682;SDS011;51107;47.652;19.016;2023-10-13T02:38:22;5.95;;;3.50;;
64682;SDS011;51107;47.652;19.016;2023-10-13T02:41:02;7.10;;;3.90;;
64682;SDS011;51107;47.652;19.016;2023-10-13T02:43:34;8.30;;;3.33;;
64682;SDS011;51107;47.652;19.016;2023-10-13T02:46:04;6.93;;;3.28;;
64682;SDS011;51107;47.652;19.016;2023-10-13T02:48:32;6.28;;;3.30;;
64682;SDS011;51107;47.652;19.016;2023-10-13T02:51:14;7.93;;;2.95;;
64682;SDS011;51107;47.652;19.016;2023-10-13T02:53:45;7.85;;;2.80;;
64682;SDS011;51107;47.652;19.016;2023-10-13T02:56:18;7.22;;;3.55;;
64682;SDS011;51107;47.652;19.016;2023-10-13T02:58:51;7.28;;;2.87;;
64682;SDS011;51107;47.652;19.016;2023-10-13T03:01:33;6.68;;;3.72;;
64682;SDS011;51107;47.652;19.016;2023-10-13T03:04:02;9.45;;;3.70;;
64682;SDS011;51107;47.652;19.016;2023-10-13T03:06:37;9.02;;;3.97;;
64682;SDS011;51107;47.652;19.016;2023-10-13T03:09:08;9.77;;;4.25;;
64682;SDS011;51107;47.652;19.016;2023-10-13T03:11:48;8.38;;;3.08;;
64682;SDS011;51107;47.652;19.016;2023-10-13T03:14:23;5.37;;;3.05;;
64682;SDS011;51107;47.652;19.016;2023-10-13T03:16:53;8.63;;;3.45;;
64682;SDS011;51107;47.652;19.016;2023-10-13T03:19:30;6.05;;;3.25;;
64682;SDS011;51107;47.652;19.016;2023-10-13T03:22:06;6.90;;;3.28;;
64682;SDS011;51107;47.652;19.016;2023-10-13T03:24:40;10.32;;;3.60;;
64682;SDS011;51107;47.652;19.016;2023-10-13T03:27:18;9.15;;;3.50;;
64682;SDS011;51107;47.652;19.016;2023-10-13T03:29:51;7.10;;;3.60;;
64682;SDS011;51107;47.652;19.016;2023-10-13T03:32:23;7.80;;;3.45;;
64682;SDS011;51107;47.652;19.016;2023-10-13T03:34:54;7.12;;;3.83;;
64682;SDS011;51107;47.652;19.016;2023-10-13T03:37:43;7.25;;;4.05;;
64682;SDS011;51107;47.652;19.016;2023-10-13T03:40:11;7.75;;;3.60;;
64682;SDS011;51107;47.652;19.016;2023-10-13T03:42:50;9.90;;;4.45;;
64682;SDS011;51107;47.652;19.016;2023-10-13T03:45:34;12.18;;;4.35;;
64682;SDS011;51107;47.652;19.016;2023-10-13T03:48:11;7.40;;;4.07;;
64682;SDS011;51107;47.652;19.016;2023-10-13T03:50:59;9.40;;;4.57;;
64682;SDS011;51107;47.652;19.016;2023-10-13T03:53:36;7.97;;;4.25;;
64682;SDS011;51107;47.652;19.016;2023-10-13T03:56:20;8.82;;;4.70;;
64682;SDS011;51107;47.652;19.016;2023-10-13T03:59:00;9.95;;;5.07;;
64682;SDS011;51107;47.652;19.016;2023-10-13T04:01:37;10.00;;;5.20;;
64682;SDS011;51107;47.652;19.016;2023-10-13T04:04:12;18.25;;;4.97;;
64682;SDS011;51107;47.652;19.016;2023-10-13T04:06:43;12.60;;;5.30;;
64682;SDS011;51107;47.652;19.016;2023-10-13T04:09:18;10.75;;;4.82;;
64682;SDS011;51107;47.652;19.016;2023-10-13T04:12:09;9.60;;;4.85;;
64682;SDS011;51107;47.652;19.016;2023-10-13T04:14:44;8.82;;;4.37;;
64682;SDS011;51107;47.652;19.016;2023-10-13T04:17:32;7.15;;;4.10;;
64682;SDS011;51107;47.652;19.016;2023-10-13T04:20:09;5.97;;;4.00;;
64682;SDS011;51107;47.652;19.016;2023-10-13T04:22:40;12.60;;;4.80;;
64682;SDS011;51107;47.652;19.016;2023-10-13T04:25:19;11.85;;;4.93;;
64682;SDS011;51107;47.652;19.016;2023-10-13T04:28:10;10.27;;;5.00;;
64682;SDS011;51107;47.652;19.016;2023-10-13T04:30:48;10.45;;;4.65;;
64682;SDS011;51107;47.652;19.016;2023-10-13T04:33:24;9.98;;;4.97;;
64682;SDS011;51107;47.652;19.016;2023-10-13T04:36:07;8.60;;;4.45;;
64682;SDS011;51107;47.652;19.016;2023-10-13T04:38:49;9.98;;;4.68;;
64682;SDS011;51107;47.652;19.016;2023-10-13T04:41:36;7.43;;;4.15;;
64682;SDS011;51107;47.652;19.016;2023-10-13T04:44:13;9.70;;;5.18;;
64682;SDS011;51107;47.652;19.016;2023-10-13T04:46:58;9.73;;;5.20;;
64682;SDS011;51107;47.652;19.016;2023-10-13T04:49:28;12.27;;;4.35;;
64682;SDS011;51107;47.652;19.016;2023-10-13T04:52:18;7.93;;;3.95;;
64682;SDS011;51107;47.652;19.016;2023-10-13T04:55:05;6.37;;;4.25;;
64682;SDS011;51107;47.652;19.016;2023-10-13T04:57:45;8.02;;;4.07;;
64682;SDS011;51107;47.652;19.016;2023-10-13T05:00:13;8.73;;;4.30;;
64682;SDS011;51107;47.652;19.016;2023-10-13T05:02:45;7.93;;;3.87;;
64682;SDS011;51107;47.652;19.016;2023-10-13T05:05:23;10.63;;;4.28;;
64682;SDS011;51107;47.652;19.016;2023-10-13T05:08:01;7.78;;;4.70;;
64682;SDS011;51107;47.652;19.016;2023-10-13T05:10:48;7.65;;;4.28;;
64682;SDS011;51107;47.652;19.016;2023-10-13T05:13:35;9.35;;;4.20;;
64682;SDS011;51107;47.652;19.016;2023-10-13T05:16:22;6.60;;;3.37;;
64682;SDS011;51107;47.652;19.016;2023-10-13T05:19:10;9.48;;;3.47;;
64682;SDS011;51107;47.652;19.016;2023-10-13T05:21:56;4.87;;;2.70;;
64682;SDS011;51107;47.652;19.016;2023-10-13T05:24:44;5.68;;;2.53;;
64682;SDS011;51107;47.652;19.016;2023-10-13T05:27:31;6.55;;;2.45;;
64682;SDS011;51107;47.652;19.016;2023-10-13T05:30:18;4.72;;;2.55;;
64682;SDS011;51107;47.652;19.016;2023-10-13T05:33:05;4.00;;;2.90;;
64682;SDS011;51107;47.652;19.016;2023-10-13T05:35:52;5.10;;;2.80;;
64682;SDS011;51107;47.652;19.016;2023-10-13T05:38:39;5.40;;;2.90;;
64682;SDS011;51107;47.652;19.016;2023-10-13T05:41:26;7.68;;;4.07;;
64682;SDS011;51107;47.652;19.016;2023-10-13T05:44:13;5.78;;;3.30;;
64682;SDS011;51107;47.652;19.016;2023-10-13T05:47:01;5.45;;;3.20;;
64682;SDS011;51107;47.652;19.016;2023-10-13T05:49:40;8.32;;;3.47;;
64682;SDS011;51107;47.652;19.016;2023-10-13T05:52:20;5.30;;;3.42;;
64682;SDS011;51107;47.652;19.016;2023-10-13T05:55:08;7.87;;;4.10;;
64682;SDS011;51107;47.652;19.016;2023-10-13T05:57:55;6.80;;;3.47;;
64682;SDS011;51107;47.652;19.016;2023-10-13T06:00:42;12.57;;;3.78;;
64682;SDS011;51107;47.652;19.016;2023-10-13T06:03:29;5.43;;;3.55;;
64682;SDS011;51107;47.652;19.016;2023-10-13T06:06:16;6.05;;;3.58;;
64682;SDS011;51107;47.652;19.016;2023-10-13T06:09:04;9.65;;;4.53;;
64682;SDS011;51107;47.652;19.016;2023-10-13T06:11:50;9.43;;;4.70;;
64682;SDS011;51107;47.652;19.016;2023-10-13T06:14:38;6.85;;;3.80;;
64682;SDS011;51107;47.652;19.016;2023-10-13T06:17:24;7.20;;;4.55;;
64682;SDS011;51107;47.652;19.016;2023-10-13T06:20:12;9.75;;;4.28;;
64682;SDS011;51107;47.652;19.016;2023-10-13T06:22:59;6.20;;;3.80;;
64682;SDS011;51107;47.652;19.016;2023-10-13T06:25:50;9.77;;;4.65;;
64682;SDS011;51107;47.652;19.016;2023-10-13T06:28:37;13.15;;;5.37;;
64682;SDS011;51107;47.652;19.016;2023-10-13T06:31:09;15.07;;;6.00;;
64682;SDS011;51107;47.652;19.016;2023-10-13T06:33:49;13.80;;;5.50;;
64682;SDS011;51107;47.652;19.016;2023-10-13T06:36:18;10.40;;;5.30;;
64682;SDS011;51107;47.652;19.016;2023-10-13T06:38:47;8.13;;;4.82;;
64682;SDS011;51107;47.652;19.016;2023-10-13T06:41:24;8.75;;;4.90;;
64682;SDS011;51107;47.652;19.016;2023-10-13T06:44:04;9.50;;;5.22;;
64682;SDS011;51107;47.652;19.016;2023-10-13T06:46:43;7.62;;;4.75;;
64682;SDS011;51107;47.652;19.016;2023-10-13T06:49:12;8.02;;;3.97;;
64682;SDS011;51107;47.652;19.016;2023-10-13T06:51:41;13.13;;;5.18;;
64682;SDS011;51107;47.652;19.016;2023-10-13T06:54:13;9.55;;;5.00;;
64682;SDS011;51107;47.652;19.016;2023-10-13T06:59:20;12.80;;;5.53;;
64682;SDS011;51107;47.652;19.016;2023-10-13T07:01:54;10.45;;;5.53;;
64682;SDS011;51107;47.652;19.016;2023-10-13T07:04:48;21.48;;;8.13;;
64682;SDS011;51107;47.652;19.016;2023-10-13T07:07:24;15.73;;;7.18;;
64682;SDS011;51107;47.652;19.016;2023-10-13T07:09:53;14.35;;;6.30;;
64682;SDS011;51107;47.652;19.016;2023-10-13T07:12:26;11.95;;;6.62;;
64682;SDS011;51107;47.652;19.016;2023-10-13T07:14:54;21.15;;;7.57;;
64682;SDS011;51107;47.652;19.016;2023-10-13T07:17:39;17.23;;;5.95;;
64682;SDS011;51107;47.652;19.016;2023-10-13T07:20:08;18.83;;;6.45;;
64682;SDS011;51107;47.652;19.016;2023-10-13T07:22:44;18.92;;;8.00;;
64682;SDS011;51107;47.652;19.016;2023-10-13T07:25:39;13.00;;;6.53;;
64682;SDS011;51107;47.652;19.016;2023-10-13T07:28:08;12.93;;;6.75;;
64682;SDS011;51107;47.652;19.016;2023-10-13T07:30:38;15.30;;;6.60;;
64682;SDS011;51107;47.652;19.016;2023-10-13T07:33:30;6.72;;;4.47;;
64682;SDS011;51107;47.652;19.016;2023-10-13T07:36:02;7.80;;;4.45;;
64682;SDS011;51107;47.652;19.016;2023-10-13T07:38:45;9.90;;;5.00;;
64682;SDS011;51107;47.652;19.016;2023-10-13T07:41:29;10.10;;;6.00;;
64682;SDS011;51107;47.652;19.016;2023-10-13T07:44:01;34.50;;;13.70;;
64682;SDS011;51107;47.652;19.016;2023-10-13T07:46:32;22.55;;;9.88;;
64682;SDS011;51107;47.652;19.016;2023-10-13T07:49:04;13.65;;;5.90;;
64682;SDS011;51107;47.652;19.016;2023-10-13T07:51:39;10.18;;;5.62;;
64682;SDS011;51107;47.652;19.016;2023-10-13T07:54:16;11.50;;;5.32;;
64682;SDS011;51107;47.652;19.016;2023-10-13T07:56:50;8.52;;;5.03;;
64682;SDS011;51107;47.652;19.016;2023-10-13T07:59:19;8.80;;;4.87;;
64682;SDS011;51107;47.652;19.016;2023-10-13T08:01:51;8.75;;;4.80;;
64682;SDS011;51107;47.652;19.016;2023-10-13T08:04:42;9.95;;;5.05;;
64682;SDS011;51107;47.652;19.016;2023-10-13T08:07:10;18.85;;;6.15;;
64682;SDS011;51107;47.652;19.016;2023-10-13T08:09:42;9.70;;;5.68;;
64682;SDS011;51107;47.652;19.016;2023-10-13T08:12:19;13.60;;;6.47;;
64682;SDS011;51107;47.652;19.016;2023-10-13T08:14:50;11.70;;;5.80;;
64682;SDS011;51107;47.652;19.016;2023-10-13T08:17:37;10.63;;;5.93;;
64682;SDS011;51107;47.652;19.016;2023-10-13T08:20:05;13.02;;;6.45;;
64682;SDS011;51107;47.652;19.016;2023-10-13T08:22:40;13.50;;;6.37;;
64682;SDS011;51107;47.652;19.016;2023-10-13T08:25:15;22.60;;;7.25;;
64682;SDS011;51107;47.652;19.016;2023-10-13T08:27:48;11.85;;;6.53;;
64682;SDS011;51107;47.652;19.016;2023-10-13T08:30:18;10.48;;;6.40;;
64682;SDS011;51107;47.652;19.016;2023-10-13T08:32:55;16.65;;;6.35;;
64682;SDS011;51107;47.652;19.016;2023-10-13T08:35:25;12.63;;;6.65;;
64682;SDS011;51107;47.652;19.016;2023-10-13T08:38:03;17.30;;;6.60;;
64682;SDS011;51107;47.652;19.016;2023-10-13T08:40:50;15.35;;;6.40;;
64682;SDS011;51107;47.652;19.016;2023-10-13T08:43:28;18.08;;;6.57;;
64682;SDS011;51107;47.652;19.016;2023-10-13T08:46:11;13.93;;;6.68;;
64682;SDS011;51107;47.652;19.016;2023-10-13T08:48:55;10.75;;;7.10;;
64682;SDS011;51107;47.652;19.016;2023-10-13T08:51:43;14.00;;;6.78;;
64682;SDS011;51107;47.652;19.016;2023-10-13T08:54:15;12.05;;;6.72;;
64682;SDS011;51107;47.652;19.016;2023-10-13T08:56:49;13.75;;;6.90;;
64682;SDS011;51107;47.652;19.016;2023-10-13T08:59:24;14.93;;;7.00;;
64682;SDS011;51107;47.652;19.016;2023-10-13T09:02:16;13.05;;;7.00;;
64682;SDS011;51107;47.652;19.016;2023-10-13T09:04:46;14.82;;;7.22;;
64682;SDS011;51107;47.652;19.016;2023-10-13T09:07:27;16.12;;;7.10;;
64682;SDS011;51107;47.652;19.016;2023-10-13T09:09:55;13.80;;;7.72;;
64682;SDS011;51107;47.652;19.016;2023-10-13T09:12:28;12.45;;;6.68;;
64682;SDS011;51107;47.652;19.016;2023-10-13T09:15:03;17.48;;;6.90;;
64682;SDS011;51107;47.652;19.016;2023-10-13T09:17:45;16.80;;;7.47;;
64682;SDS011;51107;47.652;19.016;2023-10-13T09:20:41;12.18;;;6.55;;
64682;SDS011;51107;47.652;19.016;2023-10-13T09:23:10;10.18;;;5.47;;
64682;SDS011;51107;47.652;19.016;2023-10-13T09:26:05;12.82;;;6.68;;
64682;SDS011;51107;47.652;19.016;2023-10-13T09:28:36;14.33;;;7.43;;
64682;SDS011;51107;47.652;19.016;2023-10-13T09:31:05;15.23;;;7.95;;
64682;SDS011;51107;47.652;19.016;2023-10-13T09:33:37;14.35;;;6.57;;
64682;SDS011;51107;47.652;19.016;2023-10-13T09:36:18;10.80;;;5.93;;
64682;SDS011;51107;47.652;19.016;2023-10-13T09:38:48;13.80;;;6.03;;
64682;SDS011;51107;47.652;19.016;2023-10-13T09:41:37;14.32;;;5.80;;
64682;SDS011;51107;47.652;19.016;2023-10-13T09:44:07;12.18;;;6.12;;
64682;SDS011;51107;47.652;19.016;2023-10-13T09:46:37;9.65;;;6.28;;
64682;SDS011;51107;47.652;19.016;2023-10-13T09:49:13;9.80;;;5.93;;
64682;SDS011;51107;47.652;19.016;2023-10-13T09:51:50;10.93;;;6.18;;
64682;SDS011;51107;47.652;19.016;2023-10-13T09:54:33;9.15;;;5.32;;
64682;SDS011;51107;47.652;19.016;2023-10-13T09:57:15;11.10;;;6.05;;
64682;SDS011;51107;47.652;19.016;2023-10-13T09:59:52;12.45;;;6.28;;
64682;SDS011;51107;47.652;19.016;2023-10-13T10:02:37;13.23;;;6.60;;
64682;SDS011;51107;47.652;19.016;2023-10-13T10:07:55;11.43;;;6.45;;
64682;SDS011;51107;47.652;19.016;2023-10-13T10:10:55;17.37;;;9.35;;
64682;SDS011;51107;47.652;19.016;2023-10-13T10:16:36;17.42;;;8.82;;
64682;SDS011;51107;47.652;19.016;2023-10-13T10:19:18;21.17;;;10.60;;
64682;SDS011;51107;47.652;19.016;2023-10-13T10:21:47;23.15;;;11.48;;
64682;SDS011;51107;47.652;19.016;2023-10-13T10:24:16;21.37;;;11.57;;
64682;SDS011;51107;47.652;19.016;2023-10-13T10:26:58;18.15;;;9.73;;
64682;SDS011;51107;47.652;19.016;2023-10-13T10:29:27;17.15;;;9.43;;
64682;SDS011;51107;47.652;19.016;2023-10-13T10:31:55;17.02;;;8.07;;
64682;SDS011;51107;47.652;19.016;2023-10-13T10:34:29;10.82;;;6.95;;
64682;SDS011;51107;47.652;19.016;2023-10-13T10:37:00;12.25;;;6.70;;
64682;SDS011;51107;47.652;19.016;2023-10-13T10:39:37;8.90;;;5.70;;
64682;SDS011;51107;47.652;19.016;2023-10-13T10:42:14;12.00;;;5.85;;
64682;SDS011;51107;47.652;19.016;2023-10-13T10:44:53;9.88;;;6.12;;
64682;SDS011;51107;47.652;19.016;2023-10-13T10:47:33;11.15;;;5.85;;
64682;SDS011;51107;47.652;19.016;2023-10-13T10:50:07;11.10;;;6.12;;
64682;SDS011;51107;47.652;19.016;2023-10-13T10:52:45;17.25;;;6.72;;
64682;SDS011;51107;47.652;19.016;2023-10-13T10:55:19;12.40;;;6.18;;
64682;SDS011;51107;47.652;19.016;2023-10-13T10:57:57;13.10;;;6.37;;
64682;SDS011;51107;47.652;19.016;2023-10-13T11:00:28;12.43;;;6.35;;
64682;SDS011;51107;47.652;19.016;2023-10-13T11:03:09;13.35;;;6.10;;
64682;SDS011;51107;47.652;19.016;2023-10-13T11:05:45;12.63;;;6.15;;
64682;SDS011;51107;47.652;19.016;2023-10-13T11:11:01;15.25;;;6.40;;
64682;SDS011;51107;47.652;19.016;2023-10-13T11:13:39;13.25;;;6.62;;
64682;SDS011;51107;47.652;19.016;2023-10-13T11:16:22;15.43;;;6.62;;
64682;SDS011;51107;47.652;19.016;2023-10-13T11:19:05;10.57;;;5.53;;
64682;SDS011;51107;47.652;19.016;2023-10-13T11:21:34;17.00;;;6.25;;
64682;SDS011;51107;47.652;19.016;2023-10-13T11:24:05;13.98;;;6.20;;
64682;SDS011;51107;47.652;19.016;2023-10-13T11:26:37;10.18;;;5.57;;
64682;SDS011;51107;47.652;19.016;2023-10-13T11:29:18;11.38;;;6.03;;
64682;SDS011;51107;47.652;19.016;2023-10-13T11:31:48;13.07;;;7.00;;
64682;SDS011;51107;47.652;19.016;2023-10-13T11:34:25;15.80;;;6.43;;
64682;SDS011;51107;47.652;19.016;2023-10-13T11:37:04;13.52;;;6.97;;
64682;SDS011;51107;47.652;19.016;2023-10-13T11:39:53;15.18;;;6.95;;
64682;SDS011;51107;47.652;19.016;2023-10-13T11:42:22;16.62;;;7.15;;
64682;SDS011;51107;47.652;19.016;2023-10-13T11:44:50;13.32;;;6.70;;
64682;SDS011;51107;47.652;19.016;2023-10-13T11:47:39;16.17;;;7.30;;
64682;SDS011;51107;47.652;19.016;2023-10-13T11:50:16;13.50;;;6.78;;
64682;SDS011;51107;47.652;19.016;2023-10-13T11:53:00;16.35;;;7.25;;
64682;SDS011;51107;47.652;19.016;2023-10-13T11:55:28;10.88;;;6.10;;
64682;SDS011;51107;47.652;19.016;2023-10-13T11:57:57;12.52;;;7.03;;
64682;SDS011;51107;47.652;19.016;2023-10-13T12:00:27;11.12;;;6.20;;
64682;SDS011;51107;47.652;19.016;2023-10-13T12:03:15;11.00;;;6.32;;
64682;SDS011;51107;47.652;19.016;2023-10-13T12:06:09;11.47;;;6.87;;
64682;SDS011;51107;47.652;19.016;2023-10-13T12:08:50;13.62;;;6.78;;
64682;SDS011;51107;47.652;19.016;2023-10-13T12:11:20;14.45;;;6.45;;
64682;SDS011;51107;47.652;19.016;2023-10-13T12:14:01;15.05;;;6.18;;
64682;SDS011;51107;47.652;19.016;2023-10-13T12:16:39;13.18;;;6.35;;
64682;SDS011;51107;47.652;19.016;2023-10-13T12:19:08;14.30;;;6.30;;
64682;SDS011;51107;47.652;19.016;2023-10-13T12:21:38;16.87;;;6.53;;
64682;SDS011;51107;47.652;19.016;2023-10-13T12:24:07;12.82;;;6.07;;
64682;SDS011;51107;47.652;19.016;2023-10-13T12:26:40;17.12;;;6.15;;
64682;SDS011;51107;47.652;19.016;2023-10-13T12:29:10;9.30;;;5.25;;
64682;SDS011;51107;47.652;19.016;2023-10-13T12:31:50;9.60;;;5.12;;
64682;SDS011;51107;47.652;19.016;2023-10-13T12:34:40;15.98;;;5.68;;
64682;SDS011;51107;47.652;19.016;2023-10-13T12:37:28;11.02;;;6.43;;
64682;SDS011;51107;47.652;19.016;2023-10-13T12:40:13;12.65;;;5.95;;
64682;SDS011;51107;47.652;19.016;2023-10-13T12:43:01;13.02;;;5.47;;
64682;SDS011;51107;47.652;19.016;2023-10-13T12:45:50;10.48;;;5.43;;
64682;SDS011;51107;47.652;19.016;2023-10-13T12:48:37;9.23;;;4.93;;
64682;SDS011;51107;47.652;19.016;2023-10-13T12:51:24;10.73;;;4.72;;
64682;SDS011;51107;47.652;19.016;2023-10-13T12:53:56;11.55;;;5.10;;
64682;SDS011;51107;47.652;19.016;2023-10-13T12:56:44;13.43;;;5.30;;
64682;SDS011;51107;47.652;19.016;2023-10-13T12:59:12;9.70;;;5.00;;
64682;SDS011;51107;47.652;19.016;2023-10-13T13:01:45;10.55;;;4.72;;
64682;SDS011;51107;47.652;19.016;2023-10-13T13:04:16;8.30;;;4.43;;
64682;SDS011;51107;47.652;19.016;2023-10-13T13:06:59;8.32;;;4.60;;
64682;SDS011;51107;47.652;19.016;2023-10-13T13:09:28;10.27;;;4.53;;
64682;SDS011;51107;47.652;19.016;2023-10-13T13:11:58;6.53;;;4.25;;
64682;SDS011;51107;47.652;19.016;2023-10-13T13:14:29;14.05;;;5.37;;
64682;SDS011;51107;47.652;19.016;2023-10-13T13:16:57;7.75;;;4.30;;
64682;SDS011;51107;47.652;19.016;2023-10-13T13:19:36;8.23;;;4.30;;
64682;SDS011;51107;47.652;19.016;2023-10-13T13:22:08;11.05;;;4.37;;
64682;SDS011;51107;47.652;19.016;2023-10-13T13:24:40;6.82;;;4.05;;
64682;SDS011;51107;47.652;19.016;2023-10-13T13:27:14;10.68;;;4.70;;
64682;SDS011;51107;47.652;19.016;2023-10-13T13:29:45;12.52;;;4.12;;
64682;SDS011;51107;47.652;19.016;2023-10-13T13:32:13;13.88;;;4.57;;
64682;SDS011;51107;47.652;19.016;2023-10-13T13:34:56;10.13;;;3.92;;
64682;SDS011;51107;47.652;19.016;2023-10-13T13:37:32;10.75;;;3.72;;
64682;SDS011;51107;47.652;19.016;2023-10-13T13:40:03;8.15;;;3.60;;
64682;SDS011;51107;47.652;19.016;2023-10-13T13:42:43;6.95;;;3.35;;
64682;SDS011;51107;47.652;19.016;2023-10-13T13:45:12;5.05;;;2.97;;
64682;SDS011;51107;47.652;19.016;2023-10-13T13:47:56;7.60;;;3.62;;
64682;SDS011;51107;47.652;19.016;2023-10-13T13:50:25;6.32;;;3.55;;
64682;SDS011;51107;47.652;19.016;2023-10-13T13:52:58;6.97;;;3.67;;
64682;SDS011;51107;47.652;19.016;2023-10-13T13:55:33;10.55;;;3.47;;
64682;SDS011;51107;47.652;19.016;2023-10-13T13:58:01;8.07;;;3.75;;
64682;SDS011;51107;47.652;19.016;2023-10-13T14:00:36;8.45;;;4.05;;
64682;SDS011;51107;47.652;19.016;2023-10-13T14:03:06;6.18;;;3.37;;
64682;SDS011;51107;47.652;19.016;2023-10-13T14:05:44;6.50;;;3.47;;
64682;SDS011;51107;47.652;19.016;2023-10-13T14:08:13;7.03;;;3.25;;
64682;SDS011;51107;47.652;19.016;2023-10-13T14:10:43;5.43;;;3.35;;
64682;SDS011;51107;47.652;19.016;2023-10-13T14:13:30;5.97;;;3.17;;
64682;SDS011;51107;47.652;19.016;2023-10-13T14:16:20;6.25;;;3.00;;
64682;SDS011;51107;47.652;19.016;2023-10-13T14:18:49;5.55;;;3.15;;
64682;SDS011;51107;47.652;19.016;2023-10-13T14:21:18;10.48;;;3.55;;
64682;SDS011;51107;47.652;19.016;2023-10-13T14:23:47;7.22;;;3.33;;
64682;SDS011;51107;47.652;19.016;2023-10-13T14:26:17;6.70;;;3.30;;
64682;SDS011;51107;47.652;19.016;2023-10-13T14:28:49;4.80;;;3.15;;
64682;SDS011;51107;47.652;19.016;2023-10-13T14:31:31;8.65;;;3.00;;
64682;SDS011;51107;47.652;19.016;2023-10-13T14:34:00;8.00;;;3.37;;
64682;SDS011;51107;47.652;19.016;2023-10-13T14:36:28;5.55;;;3.15;;
64682;SDS011;51107;47.652;19.016;2023-10-13T14:38:57;4.90;;;2.92;;
64682;SDS011;51107;47.652;19.016;2023-10-13T14:41:26;6.18;;;2.95;;
64682;SDS011;51107;47.652;19.016;2023-10-13T14:43:57;9.50;;;3.03;;
64682;SDS011;51107;47.652;19.016;2023-10-13T14:46:34;7.60;;;3.20;;
64682;SDS011;51107;47.652;19.016;2023-10-13T14:49:07;6.82;;;3.15;;
64682;SDS011;51107;47.652;19.016;2023-10-13T14:51:36;7.35;;;2.85;;
64682;SDS011;51107;47.652;19.016;2023-10-13T14:54:07;7.50;;;3.10;;
64682;SDS011;51107;47.652;19.016;2023-10-13T14:56:37;10.05;;;2.85;;
64682;SDS011;51107;47.652;19.016;2023-10-13T14:59:05;6.20;;;3.12;;
64682;SDS011;51107;47.652;19.016;2023-10-13T15:01:33;5.32;;;2.95;;
64682;SDS011;51107;47.652;19.016;2023-10-13T15:04:05;5.97;;;2.95;;
64682;SDS011;51107;47.652;19.016;2023-10-13T15:06:33;6.97;;;3.12;;
64682;SDS011;51107;47.652;19.016;2023-10-13T15:09:01;7.10;;;3.00;;
64682;SDS011;51107;47.652;19.016;2023-10-13T15:11:32;12.75;;;3.28;;
64682;SDS011;51107;47.652;19.016;2023-10-13T15:14:16;9.27;;;3.63;;
64682;SDS011;51107;47.652;19.016;2023-10-13T15:16:45;18.55;;;3.42;;
64682;SDS011;51107;47.652;19.016;2023-10-13T15:19:14;19.73;;;4.10;;
64682;SDS011;51107;47.652;19.016;2023-10-13T15:21:44;13.25;;;3.42;;
64682;SDS011;51107;47.652;19.016;2023-10-13T15:26:53;10.13;;;3.40;;
64682;SDS011;51107;47.652;19.016;2023-10-13T15:29:36;4.35;;;2.92;;
64682;SDS011;51107;47.652;19.016;2023-10-13T15:32:05;11.52;;;3.83;;
64682;SDS011;51107;47.652;19.016;2023-10-13T15:34:54;11.35;;;2.65;;
64682;SDS011;51107;47.652;19.016;2023-10-13T15:37:23;5.40;;;2.35;;